Marchen Maersk — OUIY2 — position and weather

sailwx.info

Track history (hours):
 
Tides and Currents Weather Stations Pressure Air Temp Water Temp Dewpoint Dewpoint Depression Visibility Wind Speed Wind Dir Waves Ship Positions

Marchen Maersk

Last reported at 2015-Sep-02 18:25 UTC. Time now 2015-Sep-02 19:06 UTC.
Position N 30°32' E 122°26'.

Length 367 m; draft 11.1 m.

Type: Ship (hazmat cat A). MMSI: 220594000.

Date/timePositionNaut miles runAvg speedWind from/ knotsBaromVisibWave heightAir tempDewpointWater temp
2015-Sep-02 18:25N 30°32' E 122°26'1715.0
2015-Sep-02 17:18N 30°28' E 122°45'1115.0
2015-Sep-02 16:33N 30°22' E 122°56'3712.4
2015-Sep-02 13:34N 29°48' E 122°38'1514.7
2015-Sep-02 12:34N 29°44' E 122°22'1212.4
2015-Sep-02 11:33N 29°52' E 122°11'1312.8
2015-Sep-02 10:32N 29°58' E 121°57'6 6.0
2015-Sep-02 09:28N 29°57' E 121°50'0 0.0
2015-Sep-02 05:06N 29°57' E 121°50'0 0.1
2015-Sep-01 23:28N 29°57' E 121°51'1010.5
2015-Sep-01 22:33N 29°56' E 122°02'1312.0
2015-Sep-01 21:30N 29°49' E 122°14'9 9.0
2015-Sep-01 20:30N 29°44' E 122°23'1711.9
2015-Sep-01 19:05N 29°41' E 122°42'3 0.9
2015-Sep-01 16:12N 29°40' E 122°44'17 3.6
2015-Sep-01 11:24N 29°23' E 122°45'37016.9
2015-Aug-31 13:31N 24°14' E 118°57'269 6.5
2015-Aug-29 20:22N 22°23' E 114°30'  
Track history (hours):
 
Tides and Currents Weather Stations Pressure Air Temp Water Temp Dewpoint Dewpoint Depression Visibility Wind Speed Wind Dir Waves Ship Positions

Marchen Maersk

Last reported at 2015-Sep-02 18:25 UTC. Time now 2015-Sep-02 19:06 UTC.
Position N 30°32' E 122°26'.

Length 367 m; draft 11.1 m.

Type: Ship (hazmat cat A). MMSI: 220594000.

Date/timePositionNaut miles runAvg speedWind from/ knotsBaromVisibWave heightAir tempDewpointWater temp
2015-Sep-02 18:25N 30°32' E 122°26'1715.0
2015-Sep-02 17:18N 30°28' E 122°45'1115.0
2015-Sep-02 16:33N 30°22' E 122°56'3712.4
2015-Sep-02 13:34N 29°48' E 122°38'1514.7
2015-Sep-02 12:34N 29°44' E 122°22'1212.4
2015-Sep-02 11:33N 29°52' E 122°11'1312.8
2015-Sep-02 10:32N 29°58' E 121°57'6 6.0
2015-Sep-02 09:28N 29°57' E 121°50'0 0.0
2015-Sep-02 05:06N 29°57' E 121°50'0 0.1
2015-Sep-01 23:28N 29°57' E 121°51'1010.5
2015-Sep-01 22:33N 29°56' E 122°02'1312.0
2015-Sep-01 21:30N 29°49' E 122°14'9 9.0
2015-Sep-01 20:30N 29°44' E 122°23'1711.9
2015-Sep-01 19:05N 29°41' E 122°42'3 0.9
2015-Sep-01 16:12N 29°40' E 122°44'17 3.6
2015-Sep-01 11:24N 29°23' E 122°45'37016.9
2015-Aug-31 13:31N 24°14' E 118°57'269 6.5
2015-Aug-29 20:22N 22°23' E 114°30'  

Dump ship's entire track history